createdAt,value
2017-10-28T00:00:46.636Z,78.40
2017-10-28T00:03:14.878Z,78.43
2017-10-28T00:05:43.888Z,78.20
2017-10-28T00:08:12.134Z,78.44
2017-10-28T00:10:41.139Z,78.73
2017-10-28T00:13:10.153Z,78.93
2017-10-28T00:15:38.423Z,79.11
2017-10-28T00:18:06.664Z,78.98
2017-10-28T00:20:34.913Z,79.33
2017-10-28T00:23:03.153Z,79.64
2017-10-28T00:25:31.414Z,79.61
2017-10-28T00:28:00.419Z,79.72
2017-10-28T00:30:34.105Z,79.98
2017-10-28T00:33:08.743Z,80.09
2017-10-28T00:35:42.591Z,80.21
2017-10-28T00:38:10.830Z,80.13
2017-10-28T00:40:39.081Z,80.14
2017-10-28T00:43:08.089Z,80.15
2017-10-28T00:45:36.342Z,80.28
2017-10-28T00:48:04.575Z,80.23
2017-10-28T00:50:32.820Z,80.44
2017-10-28T00:53:01.067Z,80.60
2017-10-28T00:55:29.321Z,81.11
2017-10-28T00:57:57.563Z,81.28
2017-10-28T01:00:25.808Z,81.36
2017-10-28T01:02:54.814Z,81.72
2017-10-28T01:05:23.066Z,81.67
2017-10-28T01:07:52.071Z,81.94
2017-10-28T01:10:21.078Z,82.35
2017-10-28T01:12:49.326Z,82.43
2017-10-28T01:15:18.337Z,82.50
2017-10-28T01:17:46.583Z,82.43
2017-10-28T01:20:14.838Z,82.52
2017-10-28T01:22:43.088Z,82.71
2017-10-28T01:25:11.349Z,82.92
2017-10-28T01:27:39.590Z,82.93
2017-10-28T01:30:08.610Z,82.84
2017-10-28T01:32:36.865Z,83.17
2017-10-28T01:35:05.112Z,83.38
2017-10-28T01:37:33.358Z,83.28
2017-10-28T01:40:01.607Z,83.45
2017-10-28T01:42:29.853Z,84.00
2017-10-28T01:44:58.112Z,83.99
2017-10-28T01:47:26.351Z,84.19
2017-10-28T01:49:54.603Z,84.55
2017-10-28T01:52:23.613Z,84.45
2017-10-28T01:54:51.861Z,84.58
2017-10-28T01:57:20.878Z,84.71
2017-10-28T01:59:49.137Z,84.56
2017-10-28T02:02:18.134Z,84.77
2017-10-28T02:04:47.150Z,84.75
2017-10-28T02:07:15.384Z,84.80
2017-10-28T02:09:44.406Z,84.90
2017-10-28T02:12:12.655Z,84.84
2017-10-28T02:14:41.674Z,85.24
2017-10-28T02:17:09.914Z,85.09
2017-10-28T02:19:38.167Z,85.10
2017-10-28T02:22:06.404Z,85.40
2017-10-28T02:24:34.650Z,85.02
2017-10-28T02:27:03.666Z,85.18
2017-10-28T02:29:31.910Z,85.17
2017-10-28T02:32:00.158Z,85.26
2017-10-28T02:34:28.407Z,85.27
2017-10-28T02:36:56.644Z,85.46
2017-10-28T02:39:25.669Z,85.43
2017-10-28T02:41:53.902Z,85.05
2017-10-28T02:44:22.158Z,85.07
2017-10-28T02:46:50.409Z,85.12
2017-10-28T02:49:18.653Z,85.15
2017-10-28T02:51:47.663Z,85.38
2017-10-28T02:54:15.926Z,85.54
2017-10-28T02:56:44.171Z,85.67
2017-10-28T02:59:12.432Z,86.16
2017-10-28T03:01:40.673Z,86.02
2017-10-28T03:04:08.918Z,86.23
2017-10-28T03:06:37.931Z,86.25
2017-10-28T03:09:06.173Z,86.39
2017-10-28T03:11:35.181Z,86.41
2017-10-28T03:14:04.198Z,86.58
2017-10-28T03:16:32.439Z,86.58
2017-10-28T03:19:01.450Z,86.56
2017-10-28T03:21:29.700Z,86.87
2017-10-28T03:23:58.061Z,86.64
2017-10-28T03:26:26.304Z,86.74
2017-10-28T03:28:54.555Z,86.91
2017-10-28T03:31:22.802Z,86.75
2017-10-28T03:33:51.811Z,86.73
2017-10-28T03:36:20.914Z,86.30
2017-10-28T03:38:49.163Z,86.14
2017-10-28T03:41:17.412Z,86.13
2017-10-28T03:43:45.664Z,86.14
2017-10-28T03:46:13.911Z,86.21
2017-10-28T03:48:42.919Z,86.09
2017-10-28T03:51:11.167Z,86.14
2017-10-28T03:53:40.174Z,86.20
2017-10-28T03:56:08.428Z,86.11
2017-10-28T03:58:36.677Z,86.28
2017-10-28T04:01:04.930Z,86.17
2017-10-28T04:03:33.317Z,86.27
2017-10-28T04:06:01.576Z,86.30
2017-10-28T04:08:29.818Z,86.47
2017-10-28T04:10:58.834Z,86.12
2017-10-28T04:13:27.077Z,86.00
2017-10-28T04:15:55.338Z,85.70
2017-10-28T04:18:23.582Z,85.60
2017-10-28T04:20:51.839Z,85.48
2017-10-28T04:23:20.079Z,85.38
2017-10-28T04:25:49.097Z,85.09
2017-10-28T04:28:17.339Z,85.27
2017-10-28T04:30:45.592Z,85.12
2017-10-28T04:33:13.832Z,84.96
2017-10-28T04:35:42.086Z,84.93
2017-10-28T04:38:11.097Z,84.58
2017-10-28T04:40:39.344Z,84.37
2017-10-28T04:43:08.358Z,84.42
2017-10-28T04:45:36.609Z,84.25
2017-10-28T04:48:05.619Z,84.15
2017-10-28T04:50:34.635Z,84.25
2017-10-28T04:53:02.871Z,83.91
2017-10-28T04:55:31.887Z,83.80
2017-10-28T04:58:00.132Z,83.35
2017-10-28T05:00:28.383Z,83.48
2017-10-28T05:02:56.636Z,83.52
2017-10-28T05:05:24.881Z,83.29
2017-10-28T05:07:53.887Z,83.18
2017-10-28T05:10:22.135Z,83.34
2017-10-28T05:12:51.148Z,83.54
2017-10-28T05:15:19.396Z,83.22
2017-10-28T05:17:47.642Z,83.29
2017-10-28T05:20:15.886Z,83.02
2017-10-28T05:22:44.140Z,82.88
2017-10-28T05:25:13.150Z,82.95
2017-10-28T05:27:41.389Z,82.76
2017-10-28T05:30:09.646Z,82.99
2017-10-28T05:32:37.901Z,82.90
2017-10-28T05:35:06.141Z,82.34
2017-10-28T05:37:34.406Z,82.27
2017-10-28T05:40:03.431Z,82.26
2017-10-28T05:42:31.719Z,82.63
2017-10-28T05:44:59.973Z,82.53
2017-10-28T05:47:28.220Z,81.92
2017-10-28T05:49:56.479Z,81.83
2017-10-28T05:52:24.724Z,81.76
2017-10-28T05:54:52.985Z,81.89
2017-10-28T05:57:21.229Z,81.67
2017-10-28T05:59:50.250Z,81.70
2017-10-28T06:02:18.560Z,81.57
2017-10-28T06:04:46.859Z,81.55
2017-10-28T06:07:15.903Z,81.69
2017-10-28T06:09:44.210Z,81.83
2017-10-28T06:12:12.485Z,82.37
2017-10-28T06:14:40.771Z,82.41
2017-10-28T06:17:09.052Z,82.39
2017-10-28T06:19:37.330Z,82.38
2017-10-28T06:22:05.628Z,82.40
2017-10-28T06:24:34.656Z,81.72
2017-10-28T06:27:02.941Z,81.10
2017-10-28T06:29:31.222Z,80.74
2017-10-28T06:31:59.496Z,80.43
2017-10-28T06:34:27.793Z,80.47
2017-10-28T06:36:56.085Z,80.00
2017-10-28T06:39:24.373Z,79.82
2017-10-28T06:41:53.436Z,79.18
2017-10-28T06:44:21.697Z,78.84
2017-10-28T06:46:49.993Z,78.86
2017-10-28T06:49:18.277Z,78.42
2017-10-28T06:51:46.572Z,78.38
2017-10-28T06:54:15.622Z,78.14
2017-10-28T06:56:43.913Z,77.90
2017-10-28T06:59:12.204Z,77.58
2017-10-28T07:01:40.489Z,77.63
2017-10-28T07:04:09.542Z,77.68
2017-10-28T07:06:37.808Z,77.65
2017-10-28T07:09:06.073Z,77.76
2017-10-28T07:11:34.357Z,77.41
2017-10-28T07:14:02.631Z,77.09
2017-10-28T07:16:31.329Z,76.67
2017-10-28T07:18:59.603Z,76.76
2017-10-28T07:21:27.903Z,76.28
2017-10-28T07:23:56.199Z,76.39
2017-10-28T07:26:25.237Z,76.11
2017-10-28T07:28:53.516Z,75.40
2017-10-28T07:31:21.823Z,75.18
2017-10-28T07:33:50.089Z,75.00
2017-10-28T07:36:18.370Z,75.10
2017-10-28T07:38:46.648Z,74.81
2017-10-28T07:41:14.918Z,74.66
2017-10-28T07:43:43.287Z,74.46
2017-10-28T07:46:11.613Z,74.18
2017-10-28T07:48:40.688Z,73.73
2017-10-28T07:51:09.001Z,73.67
2017-10-28T07:53:37.280Z,74.08
2017-10-28T07:56:05.823Z,73.83
2017-10-28T07:58:34.093Z,73.60
2017-10-28T08:01:02.389Z,73.23
2017-10-28T08:03:30.713Z,73.29
2017-10-28T08:05:59.003Z,73.25
2017-10-28T08:08:28.041Z,73.19
2017-10-28T08:10:56.351Z,72.84
2017-10-28T08:13:24.660Z,72.79
2017-10-28T08:15:52.959Z,72.04
2017-10-28T08:18:21.237Z,72.19
2017-10-28T08:20:49.539Z,71.94
2017-10-28T08:23:17.838Z,72.52
2017-10-28T08:25:46.904Z,71.48
2017-10-28T08:28:15.192Z,71.46
2017-10-28T08:30:43.519Z,71.46
2017-10-28T08:33:11.792Z,71.61
2017-10-28T08:35:40.104Z,72.05
2017-10-28T08:38:08.373Z,71.73
2017-10-28T08:40:36.643Z,71.48
2017-10-28T08:43:04.932Z,71.42
2017-10-28T08:45:33.196Z,71.45
2017-10-28T08:48:01.473Z,70.81
2017-10-28T08:50:29.744Z,71.22
2017-10-28T08:52:58.014Z,70.73
2017-10-28T08:55:26.297Z,70.51
2017-10-28T08:57:54.568Z,70.88
2017-10-28T09:00:22.866Z,70.82
2017-10-28T09:02:51.133Z,70.22
2017-10-28T09:05:19.411Z,69.84
2017-10-28T09:07:47.684Z,69.09
2017-10-28T09:10:15.948Z,68.99
2017-10-28T09:12:44.254Z,68.37
2017-10-28T09:15:12.513Z,68.24
2017-10-28T09:17:40.819Z,68.58
2017-10-28T09:20:09.081Z,68.44
2017-10-28T09:22:39.109Z,68.34
2017-10-28T09:25:07.377Z,68.26
2017-10-28T09:27:35.653Z,68.05
2017-10-28T09:30:03.939Z,68.51
2017-10-28T09:32:32.227Z,68.09
2017-10-28T09:35:01.279Z,68.15
2017-10-28T09:37:29.558Z,68.34
2017-10-28T09:39:57.803Z,67.79
2017-10-28T09:42:26.066Z,67.77
2017-10-28T09:44:55.112Z,68.60
2017-10-28T09:47:24.135Z,68.21
2017-10-28T09:49:53.139Z,67.90
2017-10-28T09:52:22.142Z,68.15
2017-10-28T09:54:50.393Z,67.15
2017-10-28T09:57:18.659Z,66.69
2017-10-28T09:59:46.881Z,66.33
2017-10-28T10:02:15.171Z,65.62
2017-10-28T10:04:43.443Z,65.44
2017-10-28T10:07:11.703Z,64.10
2017-10-28T10:09:39.960Z,62.99
2017-10-28T10:12:08.991Z,64.44
2017-10-28T10:14:37.271Z,62.52
2017-10-28T10:17:05.548Z,62.85
2017-10-28T10:19:33.800Z,63.00
2017-10-28T10:22:02.049Z,63.23
2017-10-28T10:24:31.087Z,62.95
2017-10-28T10:27:00.179Z,63.34
2017-10-28T10:29:28.451Z,62.46
2017-10-28T10:31:57.652Z,62.85
2017-10-28T10:34:25.956Z,62.56
2017-10-28T10:36:55.369Z,62.61
2017-10-28T10:39:23.708Z,62.11
2017-10-28T10:41:52.944Z,62.15
2017-10-28T10:44:21.282Z,62.46
2017-10-28T10:46:55.236Z,62.89
2017-10-28T10:49:23.522Z,63.07
2017-10-28T10:51:52.605Z,62.75
2017-10-28T10:54:20.852Z,62.74
2017-10-28T10:56:49.149Z,62.97
2017-10-28T10:59:17.497Z,61.89
2017-10-28T11:01:45.843Z,61.64
2017-10-28T11:04:14.944Z,61.72
2017-10-28T11:06:43.207Z,62.54
2017-10-28T11:09:12.247Z,62.51
2017-10-28T11:11:40.532Z,62.61
2017-10-28T11:14:08.789Z,62.82
2017-10-28T11:16:37.065Z,62.64
2017-10-28T11:19:05.336Z,63.58
2017-10-28T11:21:33.607Z,63.76
2017-10-28T11:24:01.896Z,63.25
2017-10-28T11:26:30.180Z,63.23
2017-10-28T11:28:58.483Z,63.45
2017-10-28T11:31:26.752Z,62.62
2017-10-28T11:33:55.017Z,62.51
2017-10-28T11:36:23.279Z,63.38
2017-10-28T11:38:51.551Z,63.52
2017-10-28T11:41:19.803Z,63.71
2017-10-28T11:43:48.092Z,63.81
2017-10-28T11:46:16.338Z,63.84
2017-10-28T11:48:45.350Z,63.53
2017-10-28T11:51:13.590Z,63.73
2017-10-28T11:53:41.834Z,63.80
2017-10-28T11:56:10.069Z,62.99
2017-10-28T11:58:38.319Z,63.70
2017-10-28T12:01:06.555Z,63.68
2017-10-28T12:03:34.803Z,63.45
2017-10-28T12:06:03.041Z,63.63
2017-10-28T12:08:31.288Z,63.66
2017-10-28T12:10:59.523Z,64.29
2017-10-28T12:13:27.776Z,64.43
2017-10-28T12:15:56.780Z,64.47
2017-10-28T12:18:25.792Z,64.90
2017-10-28T12:20:54.046Z,64.57
2017-10-28T12:23:23.056Z,65.31
2017-10-28T12:25:51.297Z,65.11
2017-10-28T12:28:20.315Z,64.76
2017-10-28T12:30:48.568Z,64.98
2017-10-28T12:33:16.803Z,64.71
2017-10-28T12:35:45.035Z,65.08
2017-10-28T12:38:14.043Z,64.54
2017-10-28T12:40:42.270Z,64.45
2017-10-28T12:43:10.517Z,64.67
2017-10-28T12:45:38.751Z,64.69
2017-10-28T12:48:07.762Z,64.95
2017-10-28T12:50:36.006Z,65.10
2017-10-28T12:53:04.240Z,65.25
2017-10-28T12:55:33.243Z,65.51
2017-10-28T12:58:01.496Z,65.53
2017-10-28T13:00:29.734Z,65.36
2017-10-28T13:02:58.745Z,65.21
2017-10-28T13:05:26.982Z,65.11
2017-10-28T13:07:55.230Z,65.40
2017-10-28T13:10:23.461Z,65.42
2017-10-28T13:12:51.701Z,65.46
2017-10-28T13:15:19.943Z,65.25
2017-10-28T13:17:48.187Z,65.13
2017-10-28T13:20:16.426Z,64.84
2017-10-28T13:22:44.667Z,65.08
2017-10-28T13:25:12.929Z,65.45
2017-10-28T13:27:41.179Z,64.94
2017-10-28T13:30:10.184Z,65.21
2017-10-28T13:32:38.447Z,64.68
2017-10-28T13:35:07.445Z,65.42
2017-10-28T13:37:35.687Z,65.38
2017-10-28T13:40:03.922Z,65.50
2017-10-28T13:42:32.172Z,65.84
2017-10-28T13:45:01.171Z,65.67
2017-10-28T13:47:29.415Z,65.86
2017-10-28T13:49:57.641Z,64.94
2017-10-28T13:52:25.886Z,65.04
2017-10-28T13:54:54.122Z,65.21
2017-10-28T13:57:22.369Z,65.13
2017-10-28T13:59:50.615Z,65.44
2017-10-28T14:02:19.626Z,64.80
2017-10-28T14:04:47.874Z,65.01
2017-10-28T14:07:16.885Z,64.73
2017-10-28T14:09:45.144Z,65.26
2017-10-28T14:12:14.151Z,65.00
2017-10-28T14:14:42.399Z,65.29
2017-10-28T14:17:11.402Z,65.50
2017-10-28T14:19:40.418Z,65.69
2017-10-28T14:22:08.661Z,65.60
2017-10-28T14:24:37.672Z,66.04
2017-10-28T14:27:06.682Z,66.50
2017-10-28T14:29:34.920Z,66.06
2017-10-28T14:32:03.935Z,66.15
2017-10-28T14:34:32.178Z,66.06
2017-10-28T14:37:00.426Z,66.05
2017-10-28T14:39:28.666Z,66.13
2017-10-28T14:41:56.906Z,65.88
2017-10-28T14:44:25.164Z,65.84
2017-10-28T14:46:53.398Z,65.77
2017-10-28T14:49:21.678Z,65.73
2017-10-28T14:51:50.658Z,65.37
2017-10-28T14:54:18.903Z,65.39
2017-10-28T14:56:47.152Z,65.31
2017-10-28T14:59:15.390Z,65.36
2017-10-28T15:01:43.618Z,65.25
2017-10-28T15:04:12.687Z,65.19
2017-10-28T15:06:40.935Z,65.20
2017-10-28T15:09:09.180Z,65.24
2017-10-28T15:11:38.192Z,65.14
2017-10-28T15:14:07.203Z,65.01
2017-10-28T15:16:35.431Z,65.39
2017-10-28T15:19:03.679Z,64.71
2017-10-28T15:21:31.914Z,64.57
2017-10-28T15:24:00.991Z,64.47
2017-10-28T15:26:30.002Z,64.34
2017-10-28T15:28:58.250Z,64.46
2017-10-28T15:31:26.493Z,64.23
2017-10-28T15:33:54.760Z,64.01
2017-10-28T15:36:22.989Z,64.01
2017-10-28T15:38:52.005Z,63.98
2017-10-28T15:41:20.256Z,64.03
2017-10-28T15:43:49.269Z,63.77
2017-10-28T15:46:17.508Z,63.87
2017-10-28T15:48:45.765Z,63.99
2017-10-28T15:51:13.996Z,64.00
2017-10-28T15:53:42.238Z,63.96
2017-10-28T15:56:11.241Z,63.70
2017-10-28T15:58:40.260Z,63.37
2017-10-28T16:01:08.498Z,63.96
2017-10-28T16:03:37.519Z,63.57
2017-10-28T16:06:05.790Z,63.61
2017-10-28T16:08:34.124Z,63.64
2017-10-28T16:11:02.377Z,63.61
2017-10-28T16:13:30.647Z,63.42
2017-10-28T16:15:58.904Z,63.29
2017-10-28T16:18:27.164Z,63.47
2017-10-28T16:20:56.200Z,63.44
2017-10-28T16:23:24.506Z,63.68
2017-10-28T16:25:52.771Z,63.57
2017-10-28T16:28:21.036Z,63.42
2017-10-28T16:30:49.306Z,63.74
2017-10-28T16:33:17.549Z,63.90
2017-10-28T16:35:45.785Z,63.92
2017-10-28T16:38:14.289Z,63.81
2017-10-28T16:40:43.306Z,64.12
2017-10-28T16:43:11.553Z,64.22
2017-10-28T16:45:40.587Z,64.21
2017-10-28T16:48:08.839Z,64.26
2017-10-28T16:50:37.112Z,64.31
2017-10-28T16:53:05.547Z,64.46
2017-10-28T16:55:33.810Z,64.24
2017-10-28T16:58:02.088Z,64.51
2017-10-28T17:00:30.500Z,64.35
2017-10-28T17:03:01.550Z,64.65
2017-10-28T17:05:30.574Z,64.45
2017-10-28T17:07:58.895Z,64.57
2017-10-28T17:10:27.223Z,64.62
2017-10-28T17:12:55.519Z,64.87
2017-10-28T17:15:23.827Z,64.69
2017-10-28T17:17:52.130Z,64.87
2017-10-28T17:20:21.234Z,65.13
2017-10-28T17:22:49.523Z,65.04
2017-10-28T17:25:17.848Z,65.17
2017-10-28T17:27:46.146Z,65.38
2017-10-28T17:30:15.166Z,65.20
2017-10-28T17:32:43.437Z,65.20
2017-10-28T17:35:11.693Z,65.37
2017-10-28T17:37:40.691Z,65.49
2017-10-28T17:40:09.711Z,65.69
2017-10-28T17:42:37.959Z,65.30
2017-10-28T17:45:07.080Z,65.27
2017-10-28T17:47:35.339Z,65.46
2017-10-28T17:50:03.622Z,65.32
2017-10-28T17:52:31.883Z,65.47
2017-10-28T17:55:00.922Z,65.64
2017-10-28T17:57:29.172Z,65.60
2017-10-28T17:59:57.677Z,65.69
2017-10-28T18:02:25.935Z,65.98
2017-10-28T18:04:54.176Z,66.19
2017-10-28T18:07:22.410Z,66.51
2017-10-28T18:09:50.661Z,66.47
2017-10-28T18:12:19.672Z,66.65
2017-10-28T18:14:47.925Z,66.54
2017-10-28T18:17:16.158Z,66.83
2017-10-28T18:19:44.430Z,66.81
2017-10-28T18:22:13.435Z,66.91
2017-10-28T18:24:41.667Z,67.17
2017-10-28T18:27:09.915Z,67.30
2017-10-28T18:29:38.150Z,67.34
2017-10-28T18:32:07.164Z,67.57
2017-10-28T18:34:35.401Z,67.51
2017-10-28T18:37:03.645Z,67.49
2017-10-28T18:39:31.904Z,67.64
2017-10-28T18:42:00.169Z,67.68
2017-10-28T18:44:28.401Z,67.80
2017-10-28T18:46:56.650Z,67.97
2017-10-28T18:49:24.897Z,67.82
2017-10-28T18:51:53.143Z,67.90
2017-10-28T18:54:22.148Z,68.06
2017-10-28T18:56:50.386Z,68.17
2017-10-28T18:59:18.624Z,68.38
2017-10-28T19:01:46.869Z,68.59
2017-10-28T19:04:15.106Z,68.71
2017-10-28T19:06:43.357Z,69.19
2017-10-28T19:09:11.600Z,69.56
2017-10-28T19:11:39.847Z,70.15
2017-10-28T19:14:08.862Z,70.77
2017-10-28T19:16:37.867Z,71.53
2017-10-28T19:19:06.100Z,72.25
2017-10-28T19:21:34.372Z,73.38
2017-10-28T19:24:02.614Z,74.07
2017-10-28T19:26:30.852Z,74.87
2017-10-28T19:28:59.866Z,75.63
2017-10-28T19:31:28.108Z,76.55
2017-10-28T19:33:57.123Z,77.26
2017-10-28T19:36:25.360Z,77.85
2017-10-28T19:38:53.615Z,78.57
2017-10-28T19:41:21.849Z,79.17
2017-10-28T19:43:50.108Z,80.10
2017-10-28T19:46:19.114Z,81.25
2017-10-28T19:48:47.402Z,82.36
2017-10-28T19:51:15.634Z,83.01
2017-10-28T19:53:43.879Z,84.01
2017-10-28T19:56:12.124Z,84.99
2017-10-28T19:58:40.385Z,86.01
2017-10-28T20:01:09.393Z,86.83
2017-10-28T20:03:37.635Z,87.37
2017-10-28T20:06:05.874Z,87.76
2017-10-28T20:08:34.118Z,87.89
2017-10-28T20:11:02.407Z,88.08
2017-10-28T20:13:30.655Z,87.84
2017-10-28T20:15:59.677Z,87.77
2017-10-28T20:18:27.918Z,87.17
2017-10-28T20:20:56.943Z,87.15
2017-10-28T20:23:25.219Z,86.67
2017-10-28T20:25:53.462Z,86.26
2017-10-28T20:28:22.488Z,86.80
2017-10-28T20:30:50.737Z,87.16
2017-10-28T20:33:19.008Z,87.19
2017-10-28T20:35:48.025Z,87.03
2017-10-28T20:38:16.291Z,86.28
2017-10-28T20:40:44.633Z,86.55
2017-10-28T20:43:12.884Z,86.37
2017-10-28T20:45:41.158Z,86.48
2017-10-28T20:48:09.469Z,86.15
2017-10-28T20:50:37.717Z,85.90
2017-10-28T20:53:06.011Z,85.94
2017-10-28T20:55:34.288Z,85.82
2017-10-28T20:58:02.552Z,85.53
2017-10-28T21:00:30.819Z,84.89
2017-10-28T21:02:59.840Z,84.84
2017-10-28T21:05:28.134Z,85.32
2017-10-28T21:07:57.180Z,85.24
2017-10-28T21:10:26.253Z,85.06
2017-10-28T21:12:54.529Z,84.70
2017-10-28T21:15:22.790Z,85.39
2017-10-28T21:17:51.067Z,87.53
2017-10-28T21:20:19.344Z,88.90
2017-10-28T21:22:47.671Z,86.82
2017-10-28T21:25:15.954Z,87.01
2017-10-28T21:27:45.013Z,87.01
2017-10-28T21:30:13.305Z,86.92
2017-10-28T21:32:41.558Z,86.88
2017-10-28T21:35:09.825Z,87.11
2017-10-28T21:37:38.089Z,87.25
2017-10-28T21:40:06.365Z,87.17
2017-10-28T21:42:34.621Z,87.03
2017-10-28T21:45:03.726Z,86.97
2017-10-28T21:47:31.974Z,86.97
2017-10-28T21:50:00.237Z,87.47
2017-10-28T21:52:28.506Z,87.55
2017-10-28T21:54:56.759Z,87.41
2017-10-28T21:57:25.008Z,87.52
2017-10-28T21:59:53.253Z,87.49
2017-10-28T22:02:21.492Z,87.85
2017-10-28T22:04:49.810Z,88.87
2017-10-28T22:07:18.853Z,88.50
2017-10-28T22:09:47.117Z,88.38
2017-10-28T22:12:15.403Z,88.70
2017-10-28T22:14:43.781Z,89.13
2017-10-28T22:17:12.062Z,89.36
2017-10-28T22:19:40.321Z,88.97
2017-10-28T22:22:08.589Z,88.84
2017-10-28T22:24:36.851Z,87.95
2017-10-28T22:27:05.098Z,88.34
2017-10-28T22:29:34.125Z,88.59
2017-10-28T22:32:02.365Z,88.31
2017-10-28T22:34:30.618Z,88.36
2017-10-28T22:36:58.860Z,88.33
2017-10-28T22:39:27.135Z,88.29
2017-10-28T22:41:55.384Z,87.95
2017-10-28T22:44:24.411Z,87.98
2017-10-28T22:46:52.649Z,87.85
2017-10-28T22:49:21.665Z,87.94
2017-10-28T22:51:49.902Z,87.72
2017-10-28T22:54:18.920Z,87.11
2017-10-28T22:56:47.193Z,87.14
2017-10-28T22:59:15.446Z,87.01
2017-10-28T23:01:43.690Z,86.78
2017-10-28T23:04:11.939Z,87.01
2017-10-28T23:06:40.228Z,87.54
2017-10-28T23:09:08.493Z,87.24
2017-10-28T23:11:36.746Z,87.96
2017-10-28T23:14:05.045Z,88.20
2017-10-28T23:16:33.332Z,88.59
2017-10-28T23:19:01.568Z,88.76
2017-10-28T23:21:29.832Z,89.04
2017-10-28T23:23:58.864Z,88.83
2017-10-28T23:26:27.134Z,88.63
2017-10-28T23:28:55.423Z,88.19
2017-10-28T23:31:23.675Z,88.07
2017-10-28T23:33:51.935Z,87.70
2017-10-28T23:36:20.944Z,87.95
2017-10-28T23:38:49.191Z,87.83
2017-10-28T23:41:18.202Z,87.16
2017-10-28T23:43:48.625Z,87.33
2017-10-28T23:46:17.703Z,87.63
2017-10-28T23:48:46.769Z,87.62
2017-10-28T23:51:15.077Z,87.08
2017-10-28T23:53:44.154Z,87.29
2017-10-28T23:56:12.486Z,87.22
2017-10-28T23:58:40.818Z,87.58
